createdAt,value
2022-12-08T00:02:44.591Z,14.98
2022-12-08T00:08:30.925Z,14.80
2022-12-08T00:13:54.575Z,12.32
2022-12-08T00:19:18.266Z,14.30
2022-12-08T00:24:45.755Z,14.70
2022-12-08T00:30:10.588Z,12.90
2022-12-08T00:35:36.596Z,13.80
2022-12-08T00:41:08.228Z,13.60
2022-12-08T00:46:32.001Z,18.17
2022-12-08T00:51:55.804Z,15.65
2022-12-08T00:57:20.802Z,16.05
2022-12-08T01:02:44.500Z,13.48
2022-12-08T01:08:09.098Z,12.60
2022-12-08T01:13:35.389Z,13.32
2022-12-08T01:19:00.137Z,14.75
2022-12-08T01:24:23.929Z,11.95
2022-12-08T01:29:49.486Z,12.73
2022-12-08T01:35:13.757Z,13.18
2022-12-08T01:40:37.423Z,12.95
2022-12-08T01:46:02.450Z,11.20
2022-12-08T01:51:26.954Z,10.85
2022-12-08T01:57:02.059Z,11.40
2022-12-08T02:02:30.707Z,11.25
2022-12-08T02:07:55.438Z,12.93
2022-12-08T02:13:22.247Z,11.82
2022-12-08T02:19:29.848Z,11.57
2022-12-08T02:24:51.939Z,13.07
2022-12-08T02:30:25.154Z,12.95
2022-12-08T02:35:58.470Z,11.30
2022-12-08T02:41:33.442Z,13.82
2022-12-08T02:47:00.001Z,16.27
2022-12-08T02:52:45.586Z,16.25
2022-12-08T02:58:42.557Z,13.35
2022-12-08T03:04:16.128Z,12.35
2022-12-08T03:09:49.150Z,12.75
2022-12-08T03:15:16.854Z,11.43
2022-12-08T03:20:42.132Z,11.32
2022-12-08T03:26:13.772Z,12.20
2022-12-08T03:31:41.658Z,10.48
2022-12-08T03:37:05.485Z,12.23
2022-12-08T03:42:30.489Z,14.18
2022-12-08T03:47:54.136Z,12.93
2022-12-08T03:53:17.880Z,14.30
2022-12-08T03:58:43.060Z,11.63
2022-12-08T04:04:06.757Z,12.20
2022-12-08T04:09:30.417Z,13.05
2022-12-08T04:14:55.439Z,11.80
2022-12-08T04:20:19.133Z,12.00
2022-12-08T04:25:42.786Z,13.55
2022-12-08T04:31:08.481Z,14.48
2022-12-08T04:36:32.151Z,15.88
2022-12-08T04:41:55.792Z,12.13
2022-12-08T04:47:22.269Z,12.32
2022-12-08T04:52:45.920Z,11.73
2022-12-08T04:58:12.762Z,12.60
2022-12-08T05:03:37.799Z,11.18
2022-12-08T05:09:01.393Z,11.18
2022-12-08T05:14:25.240Z,12.18
2022-12-08T05:19:50.194Z,12.02
2022-12-08T05:25:14.071Z,13.27
2022-12-08T05:30:37.751Z,13.50
2022-12-08T05:36:03.681Z,10.38
2022-12-08T05:41:27.465Z,12.77
2022-12-08T05:46:51.187Z,14.50
2022-12-08T05:52:17.061Z,15.52
2022-12-08T05:57:40.749Z,16.05
2022-12-08T06:03:05.126Z,18.05
2022-12-08T06:08:30.219Z,15.98
2022-12-08T06:13:54.542Z,13.32
2022-12-08T06:19:18.199Z,14.10
2022-12-08T06:24:43.200Z,12.38
2022-12-08T06:30:08.317Z,13.57
2022-12-08T06:35:31.961Z,14.25
2022-12-08T06:40:57.529Z,13.75
2022-12-08T06:46:21.625Z,16.63
2022-12-08T06:51:45.422Z,16.25
2022-12-08T06:57:11.091Z,19.15
2022-12-08T07:02:34.826Z,17.70
2022-12-08T07:07:58.704Z,18.00
2022-12-08T07:13:23.795Z,18.52
2022-12-08T07:18:47.475Z,16.92
2022-12-08T07:24:11.587Z,16.92
2022-12-08T07:29:36.586Z,16.83
2022-12-08T07:35:00.283Z,19.08
2022-12-08T07:40:23.960Z,21.83
2022-12-08T07:45:49.520Z,21.15
2022-12-08T07:51:14.780Z,24.15
2022-12-08T07:56:40.969Z,19.23
2022-12-08T08:02:23.691Z,22.27
2022-12-08T08:07:48.887Z,25.00
2022-12-08T08:13:12.638Z,25.80
2022-12-08T08:18:39.100Z,27.95
2022-12-08T08:24:02.780Z,26.55
2022-12-08T08:29:27.348Z,27.92
2022-12-08T08:34:53.317Z,27.80
2022-12-08T08:40:17.465Z,29.17
2022-12-08T08:45:41.241Z,29.40
2022-12-08T08:51:11.632Z,31.08
2022-12-08T08:56:35.274Z,30.90
2022-12-08T09:01:59.021Z,30.17
2022-12-08T09:07:24.125Z,27.85
2022-12-08T09:12:47.910Z,24.55
2022-12-08T09:18:12.015Z,22.70
2022-12-08T09:23:37.065Z,22.60
2022-12-08T09:29:01.325Z,20.23
2022-12-08T09:34:25.018Z,18.83
2022-12-08T09:39:50.109Z,19.98
2022-12-08T09:45:15.601Z,18.67
2022-12-08T09:50:44.749Z,18.77
2022-12-08T09:56:15.757Z,16.10
2022-12-08T10:01:42.472Z,16.88
2022-12-08T10:07:14.247Z,16.83
2022-12-08T10:12:47.621Z,14.48
2022-12-08T10:18:16.472Z,12.77
2022-12-08T10:23:42.156Z,13.55
2022-12-08T10:29:07.323Z,14.57
2022-12-08T10:34:30.953Z,13.18
2022-12-08T10:40:01.699Z,14.27
2022-12-08T10:45:30.341Z,12.73
2022-12-08T10:50:55.998Z,12.75
2022-12-08T10:56:19.733Z,13.57
2022-12-08T11:01:48.223Z,11.90
2022-12-08T11:07:12.340Z,12.85
2022-12-08T11:12:37.563Z,11.80
2022-12-08T11:18:09.503Z,12.20
2022-12-08T11:23:37.422Z,11.15
2022-12-08T11:29:01.247Z,11.48
2022-12-08T11:34:35.106Z,11.35
2022-12-08T11:40:01.922Z,12.85
2022-12-08T11:45:28.622Z,10.40
2022-12-08T11:50:57.289Z,7.35
2022-12-08T11:56:24.676Z,10.75
2022-12-08T12:01:48.528Z,11.43
2022-12-08T12:07:41.870Z,11.43
2022-12-08T12:13:27.186Z,11.52
2022-12-08T12:18:55.173Z,11.20
2022-12-08T12:24:26.722Z,9.50
2022-12-08T12:29:58.947Z,10.57
2022-12-08T12:35:30.619Z,9.98
2022-12-08T12:41:01.529Z,10.75
2022-12-08T12:46:54.274Z,10.67
2022-12-08T12:52:51.226Z,10.38
2022-12-08T12:58:40.191Z,10.90
2022-12-08T13:04:07.624Z,9.93
2022-12-08T13:09:36.317Z,10.65
2022-12-08T13:15:06.051Z,11.43
2022-12-08T13:20:29.901Z,10.93
2022-12-08T13:26:09.986Z,10.60
2022-12-08T13:31:46.795Z,9.98
2022-12-08T13:37:26.609Z,10.45
2022-12-08T13:43:01.825Z,9.70
2022-12-08T13:50:05.806Z,14.07
2022-12-08T14:00:17.663Z,12.00
2022-12-08T14:11:34.878Z,13.50
2022-12-08T14:17:02.497Z,22.38
2022-12-08T14:22:33.745Z,13.40
2022-12-08T14:28:01.624Z,11.10
2022-12-08T14:33:27.043Z,12.00
2022-12-08T14:38:55.569Z,28.10
2022-12-08T14:44:25.073Z,12.63
2022-12-08T14:49:49.169Z,11.77
2022-12-08T14:55:17.105Z,10.93
2022-12-08T15:00:46.437Z,20.95
2022-12-08T15:06:14.522Z,10.07
2022-12-08T15:11:39.568Z,16.52
2022-12-08T15:17:03.217Z,11.65
2022-12-08T15:22:27.463Z,17.05
2022-12-08T15:27:53.356Z,11.25
2022-12-08T15:33:17.037Z,11.13
2022-12-08T15:38:40.825Z,13.68
2022-12-08T15:44:05.937Z,17.83
2022-12-08T15:49:29.673Z,16.73
2022-12-08T15:54:54.867Z,17.45
2022-12-08T16:00:51.832Z,14.85
2022-12-08T16:12:19.415Z,13.45
2022-12-08T16:17:45.190Z,12.37
2022-12-08T16:23:34.270Z,14.25
2022-12-08T16:28:54.299Z,16.38
2022-12-08T16:34:19.920Z,12.60
2022-12-08T16:39:45.860Z,11.05
2022-12-08T16:45:12.311Z,11.27
2022-12-08T16:50:37.685Z,11.95
2022-12-08T16:56:01.538Z,12.88
2022-12-08T17:01:25.252Z,11.48
2022-12-08T17:06:52.848Z,11.07
2022-12-08T17:12:16.649Z,12.77
2022-12-08T17:17:40.473Z,11.68
2022-12-08T17:23:05.509Z,11.82
2022-12-08T17:28:58.381Z,11.20
2022-12-08T17:34:13.060Z,12.10
2022-12-08T17:39:38.292Z,11.88
2022-12-08T17:45:02.143Z,12.38
2022-12-08T17:50:25.888Z,12.32
2022-12-08T17:55:55.502Z,10.40
2022-12-08T18:01:19.218Z,10.98
2022-12-08T18:06:43.168Z,11.70
2022-12-08T18:12:08.578Z,13.05
2022-12-08T18:17:32.285Z,12.93
2022-12-08T18:22:55.931Z,12.95
2022-12-08T18:28:21.033Z,13.07
2022-12-08T18:33:45.913Z,13.90
2022-12-08T18:39:21.493Z,12.18
2022-12-08T18:44:46.622Z,12.77
2022-12-08T18:50:12.799Z,11.57
2022-12-08T18:55:38.413Z,11.30
2022-12-08T19:01:03.552Z,12.27
2022-12-08T19:06:27.359Z,12.05
2022-12-08T19:11:51.172Z,10.88
2022-12-08T19:17:16.261Z,12.75
2022-12-08T19:22:40.325Z,12.35
2022-12-08T19:28:04.058Z,11.20
2022-12-08T19:33:29.098Z,12.25
2022-12-08T19:39:10.551Z,14.55
2022-12-08T19:44:51.921Z,14.73
2022-12-08T19:50:34.731Z,17.90
2022-12-08T19:55:58.393Z,12.68
2022-12-08T20:01:22.159Z,11.45
2022-12-08T20:06:48.180Z,15.27
2022-12-08T20:12:12.274Z,15.13
2022-12-08T20:17:35.901Z,12.60
2022-12-08T20:23:01.022Z,14.05
2022-12-08T20:28:24.714Z,14.32
2022-12-08T20:33:48.904Z,22.60
2022-12-08T20:39:15.334Z,19.65
2022-12-08T20:44:43.358Z,13.27
2022-12-08T20:50:08.794Z,12.57
2022-12-08T20:55:35.356Z,14.32
2022-12-08T21:00:59.151Z,15.23
2022-12-08T21:06:23.949Z,14.02
2022-12-08T21:11:48.953Z,15.38
2022-12-08T21:17:12.890Z,13.82
2022-12-08T21:22:36.920Z,13.65
2022-12-08T21:28:02.198Z,14.70
2022-12-08T21:33:25.971Z,15.52
2022-12-08T21:38:49.794Z,14.63
2022-12-08T21:44:18.700Z,16.38
2022-12-08T21:49:43.156Z,15.75
2022-12-08T21:55:08.246Z,15.20
2022-12-08T22:00:33.527Z,15.77
2022-12-08T22:05:57.291Z,18.63
2022-12-08T22:11:21.137Z,19.10
2022-12-08T22:16:46.212Z,16.08
2022-12-08T22:22:10.221Z,17.83
2022-12-08T22:27:34.657Z,17.65
2022-12-08T22:32:59.928Z,18.70
2022-12-08T22:38:23.893Z,19.05
2022-12-08T22:43:48.813Z,18.60
2022-12-08T22:49:13.989Z,18.70
2022-12-08T22:54:37.945Z,19.52
2022-12-08T23:00:01.614Z,18.00
2022-12-08T23:05:26.901Z,19.55
2022-12-08T23:10:52.353Z,20.25
2022-12-08T23:16:16.354Z,20.40
2022-12-08T23:21:41.719Z,21.27
2022-12-08T23:27:05.552Z,20.38
2022-12-08T23:32:29.495Z,18.27
2022-12-08T23:37:54.557Z,20.95
2022-12-08T23:43:18.376Z,19.30
2022-12-08T23:48:42.250Z,19.35
2022-12-08T23:54:08.355Z,19.65
2022-12-08T23:59:32.571Z,21.17
